sensor_id;sensor_type;location;lat;lon;timestamp;temperature;humidity
33837;DHT22;20140;49.356;8.812;2023-12-04T00:00:08;-3.60;99.90
33837;DHT22;20140;49.356;8.812;2023-12-04T00:02:33;-3.60;99.90
33837;DHT22;20140;49.356;8.812;2023-12-04T00:04:59;-3.60;99.90
33837;DHT22;20140;49.356;8.812;2023-12-04T00:07:24;-3.50;99.90
33837;DHT22;20140;49.356;8.812;2023-12-04T00:09:50;-3.60;99.90
33837;DHT22;20140;49.356;8.812;2023-12-04T00:12:15;-3.70;99.90
33837;DHT22;20140;49.356;8.812;2023-12-04T00:14:40;-3.70;99.90
33837;DHT22;20140;49.356;8.812;2023-12-04T00:17:06;-3.70;99.90
33837;DHT22;20140;49.356;8.812;2023-12-04T00:19:31;-3.70;99.90
33837;DHT22;20140;49.356;8.812;2023-12-04T00:21:57;-3.70;99.90
33837;DHT22;20140;49.356;8.812;2023-12-04T00:24:25;-3.70;99.90
33837;DHT22;20140;49.356;8.812;2023-12-04T00:26:50;-3.70;99.90
33837;DHT22;20140;49.356;8.812;2023-12-04T00:29:15;-3.80;99.90
33837;DHT22;20140;49.356;8.812;2023-12-04T00:31:41;-3.80;99.90
33837;DHT22;20140;49.356;8.812;2023-12-04T00:34:06;-3.70;99.90
33837;DHT22;20140;49.356;8.812;2023-12-04T00:36:32;-3.60;99.90
33837;DHT22;20140;49.356;8.812;2023-12-04T00:38:57;-3.60;99.90
33837;DHT22;20140;49.356;8.812;2023-12-04T00:41:22;-3.50;99.90
33837;DHT22;20140;49.356;8.812;2023-12-04T00:43:48;-3.40;99.90
33837;DHT22;20140;49.356;8.812;2023-12-04T00:46:14;-3.30;99.90
33837;DHT22;20140;49.356;8.812;2023-12-04T00:48:39;-3.30;99.90
33837;DHT22;20140;49.356;8.812;2023-12-04T00:51:04;-3.20;99.90
33837;DHT22;20140;49.356;8.812;2023-12-04T00:53:30;-3.20;99.90
33837;DHT22;20140;49.356;8.812;2023-12-04T00:55:55;-3.20;99.90
33837;DHT22;20140;49.356;8.812;2023-12-04T00:58:21;-3.30;99.90
33837;DHT22;20140;49.356;8.812;2023-12-04T01:00:46;-3.50;99.90
33837;DHT22;20140;49.356;8.812;2023-12-04T01:03:14;-3.60;99.90
33837;DHT22;20140;49.356;8.812;2023-12-04T01:05:39;-3.60;99.90
33837;DHT22;20140;49.356;8.812;2023-12-04T01:08:05;-3.60;99.90
33837;DHT22;20140;49.356;8.812;2023-12-04T01:10:30;-3.60;99.90
33837;DHT22;20140;49.356;8.812;2023-12-04T01:12:56;-3.70;99.90
33837;DHT22;20140;49.356;8.812;2023-12-04T01:15:21;-3.80;99.90
33837;DHT22;20140;49.356;8.812;2023-12-04T01:17:47;-3.70;99.90
33837;DHT22;20140;49.356;8.812;2023-12-04T01:20:13;-3.70;99.90
33837;DHT22;20140;49.356;8.812;2023-12-04T01:22:38;-3.60;99.90
33837;DHT22;20140;49.356;8.812;2023-12-04T01:25:04;-3.60;99.90
33837;DHT22;20140;49.356;8.812;2023-12-04T01:27:30;-3.50;99.90
33837;DHT22;20140;49.356;8.812;2023-12-04T01:29:55;-3.50;99.90
33837;DHT22;20140;49.356;8.812;2023-12-04T01:32:20;-3.60;99.90
33837;DHT22;20140;49.356;8.812;2023-12-04T01:34:46;-3.60;99.90
33837;DHT22;20140;49.356;8.812;2023-12-04T01:37:11;-3.50;99.90
33837;DHT22;20140;49.356;8.812;2023-12-04T01:39:37;-3.60;99.90
33837;DHT22;20140;49.356;8.812;2023-12-04T01:42:02;-3.70;99.90
33837;DHT22;20140;49.356;8.812;2023-12-04T01:44:28;-3.70;99.90
33837;DHT22;20140;49.356;8.812;2023-12-04T01:46:53;-3.70;99.90
33837;DHT22;20140;49.356;8.812;2023-12-04T01:49:19;-3.70;99.90
33837;DHT22;20140;49.356;8.812;2023-12-04T01:51:44;-3.60;99.90
33837;DHT22;20140;49.356;8.812;2023-12-04T01:54:10;-3.60;99.90
33837;DHT22;20140;49.356;8.812;2023-12-04T01:56:36;-3.60;99.90
33837;DHT22;20140;49.356;8.812;2023-12-04T01:59:02;-3.60;99.90
33837;DHT22;20140;49.356;8.812;2023-12-04T02:01:28;-3.60;99.90
33837;DHT22;20140;49.356;8.812;2023-12-04T02:03:54;-3.60;99.90
33837;DHT22;20140;49.356;8.812;2023-12-04T02:06:19;-3.70;99.90
33837;DHT22;20140;49.356;8.812;2023-12-04T02:08:47;-3.80;99.90
33837;DHT22;20140;49.356;8.812;2023-12-04T02:11:13;-3.80;99.90
33837;DHT22;20140;49.356;8.812;2023-12-04T02:13:39;-3.70;99.90
33837;DHT22;20140;49.356;8.812;2023-12-04T02:16:08;-3.70;99.90
33837;DHT22;20140;49.356;8.812;2023-12-04T02:18:34;-3.60;99.90
33837;DHT22;20140;49.356;8.812;2023-12-04T02:21:00;-3.60;99.90
33837;DHT22;20140;49.356;8.812;2023-12-04T02:23:25;-3.60;99.90
33837;DHT22;20140;49.356;8.812;2023-12-04T02:25:51;-3.60;99.90
33837;DHT22;20140;49.356;8.812;2023-12-04T02:28:18;-3.60;99.90
33837;DHT22;20140;49.356;8.812;2023-12-04T02:30:44;-3.60;99.90
33837;DHT22;20140;49.356;8.812;2023-12-04T02:33:11;-3.60;99.90
33837;DHT22;20140;49.356;8.812;2023-12-04T02:38:40;-3.60;99.90
33837;DHT22;20140;49.356;8.812;2023-12-04T02:41:06;-3.50;99.90
33837;DHT22;20140;49.356;8.812;2023-12-04T02:43:31;-3.60;99.90
33837;DHT22;20140;49.356;8.812;2023-12-04T02:45:58;-3.50;99.90
33837;DHT22;20140;49.356;8.812;2023-12-04T02:48:24;-3.60;99.90
33837;DHT22;20140;49.356;8.812;2023-12-04T02:50:49;-3.70;99.90
33837;DHT22;20140;49.356;8.812;2023-12-04T02:53:15;-3.70;99.90
33837;DHT22;20140;49.356;8.812;2023-12-04T02:55:40;-3.60;99.90
33837;DHT22;20140;49.356;8.812;2023-12-04T02:58:05;-3.50;99.90
33837;DHT22;20140;49.356;8.812;2023-12-04T03:00:31;-3.70;99.90
33837;DHT22;20140;49.356;8.812;2023-12-04T03:02:56;-3.80;99.90
33837;DHT22;20140;49.356;8.812;2023-12-04T03:05:22;-3.80;99.90
33837;DHT22;20140;49.356;8.812;2023-12-04T03:07:47;-3.80;99.90
33837;DHT22;20140;49.356;8.812;2023-12-04T03:10:13;-3.80;99.90
33837;DHT22;20140;49.356;8.812;2023-12-04T03:12:38;-3.70;99.90
33837;DHT22;20140;49.356;8.812;2023-12-04T03:15:04;-3.60;99.90
33837;DHT22;20140;49.356;8.812;2023-12-04T03:17:30;-3.70;99.90
33837;DHT22;20140;49.356;8.812;2023-12-04T03:19:55;-3.60;99.90
33837;DHT22;20140;49.356;8.812;2023-12-04T03:22:21;-3.70;99.90
33837;DHT22;20140;49.356;8.812;2023-12-04T03:24:46;-3.60;99.90
33837;DHT22;20140;49.356;8.812;2023-12-04T03:27:12;-3.70;99.90
33837;DHT22;20140;49.356;8.812;2023-12-04T03:29:37;-3.50;99.90
33837;DHT22;20140;49.356;8.812;2023-12-04T03:32:03;-3.60;99.90
33837;DHT22;20140;49.356;8.812;2023-12-04T03:34:28;-3.60;99.90
33837;DHT22;20140;49.356;8.812;2023-12-04T03:36:54;-3.60;99.90
33837;DHT22;20140;49.356;8.812;2023-12-04T03:39:19;-3.50;99.90
33837;DHT22;20140;49.356;8.812;2023-12-04T03:41:45;-3.60;99.90
33837;DHT22;20140;49.356;8.812;2023-12-04T03:44:10;-3.60;99.90
33837;DHT22;20140;49.356;8.812;2023-12-04T03:46:35;-3.50;99.90
33837;DHT22;20140;49.356;8.812;2023-12-04T03:49:01;-3.60;99.90
33837;DHT22;20140;49.356;8.812;2023-12-04T03:51:27;-3.70;99.90
33837;DHT22;20140;49.356;8.812;2023-12-04T03:53:52;-3.70;99.90
33837;DHT22;20140;49.356;8.812;2023-12-04T03:56:18;-3.70;99.90
33837;DHT22;20140;49.356;8.812;2023-12-04T03:58:43;-3.60;99.90
33837;DHT22;20140;49.356;8.812;2023-12-04T04:01:09;-3.60;99.90
33837;DHT22;20140;49.356;8.812;2023-12-04T04:03:34;-3.70;99.90
33837;DHT22;20140;49.356;8.812;2023-12-04T04:06:00;-3.80;99.90
33837;DHT22;20140;49.356;8.812;2023-12-04T04:08:25;-3.80;99.90
33837;DHT22;20140;49.356;8.812;2023-12-04T04:10:50;-3.80;99.90
33837;DHT22;20140;49.356;8.812;2023-12-04T04:13:16;-3.80;99.90
33837;DHT22;20140;49.356;8.812;2023-12-04T04:15:41;-3.80;99.90
33837;DHT22;20140;49.356;8.812;2023-12-04T04:18:07;-3.80;99.90
33837;DHT22;20140;49.356;8.812;2023-12-04T04:20:34;-3.70;99.90
33837;DHT22;20140;49.356;8.812;2023-12-04T04:23:00;-3.60;99.90
33837;DHT22;20140;49.356;8.812;2023-12-04T04:25:25;-3.40;99.90
33837;DHT22;20140;49.356;8.812;2023-12-04T04:27:51;-3.40;99.90
33837;DHT22;20140;49.356;8.812;2023-12-04T04:30:16;-3.30;99.90
33837;DHT22;20140;49.356;8.812;2023-12-04T04:32:42;-3.30;99.90
33837;DHT22;20140;49.356;8.812;2023-12-04T04:35:08;-3.30;99.90
33837;DHT22;20140;49.356;8.812;2023-12-04T04:37:33;-3.30;99.90
33837;DHT22;20140;49.356;8.812;2023-12-04T04:39:59;-3.30;99.90
33837;DHT22;20140;49.356;8.812;2023-12-04T04:42:24;-3.20;99.90
33837;DHT22;20140;49.356;8.812;2023-12-04T04:44:50;-3.20;99.90
33837;DHT22;20140;49.356;8.812;2023-12-04T04:47:15;-3.30;99.90
33837;DHT22;20140;49.356;8.812;2023-12-04T04:49:41;-3.20;99.90
33837;DHT22;20140;49.356;8.812;2023-12-04T04:52:07;-3.20;99.90
33837;DHT22;20140;49.356;8.812;2023-12-04T04:54:33;-3.20;99.90
33837;DHT22;20140;49.356;8.812;2023-12-04T04:56:58;-3.30;99.90
33837;DHT22;20140;49.356;8.812;2023-12-04T04:59:24;-3.30;99.90
33837;DHT22;20140;49.356;8.812;2023-12-04T05:01:49;-3.30;99.90
33837;DHT22;20140;49.356;8.812;2023-12-04T05:04:15;-3.30;99.90
33837;DHT22;20140;49.356;8.812;2023-12-04T05:06:40;-3.30;99.90
33837;DHT22;20140;49.356;8.812;2023-12-04T05:09:06;-3.30;99.90
33837;DHT22;20140;49.356;8.812;2023-12-04T05:11:31;-3.30;99.90
33837;DHT22;20140;49.356;8.812;2023-12-04T05:13:56;-3.30;99.90
33837;DHT22;20140;49.356;8.812;2023-12-04T05:16:22;-3.30;99.90
33837;DHT22;20140;49.356;8.812;2023-12-04T05:18:47;-3.20;99.90
33837;DHT22;20140;49.356;8.812;2023-12-04T05:21:13;-3.30;99.90
33837;DHT22;20140;49.356;8.812;2023-12-04T05:23:39;-3.30;99.90
33837;DHT22;20140;49.356;8.812;2023-12-04T05:26:05;-3.30;99.90
33837;DHT22;20140;49.356;8.812;2023-12-04T05:28:30;-3.30;99.90
33837;DHT22;20140;49.356;8.812;2023-12-04T05:30:56;-3.30;99.90
33837;DHT22;20140;49.356;8.812;2023-12-04T05:33:21;-3.30;99.90
33837;DHT22;20140;49.356;8.812;2023-12-04T05:35:47;-3.30;99.90
33837;DHT22;20140;49.356;8.812;2023-12-04T05:38:13;-3.40;99.90
33837;DHT22;20140;49.356;8.812;2023-12-04T05:40:38;-3.30;99.90
33837;DHT22;20140;49.356;8.812;2023-12-04T05:43:04;-3.30;99.90
33837;DHT22;20140;49.356;8.812;2023-12-04T05:45:32;-3.40;99.90
33837;DHT22;20140;49.356;8.812;2023-12-04T05:47:57;-3.40;99.90
33837;DHT22;20140;49.356;8.812;2023-12-04T05:50:22;-3.60;99.90
33837;DHT22;20140;49.356;8.812;2023-12-04T05:52:48;-3.60;99.90
33837;DHT22;20140;49.356;8.812;2023-12-04T05:55:13;-3.50;99.90
33837;DHT22;20140;49.356;8.812;2023-12-04T05:57:39;-3.40;99.90
33837;DHT22;20140;49.356;8.812;2023-12-04T06:00:05;-3.50;99.90
33837;DHT22;20140;49.356;8.812;2023-12-04T06:02:37;-3.50;99.90
33837;DHT22;20140;49.356;8.812;2023-12-04T06:05:03;-3.50;99.90
33837;DHT22;20140;49.356;8.812;2023-12-04T06:07:29;-3.40;99.90
33837;DHT22;20140;49.356;8.812;2023-12-04T06:09:54;-3.30;99.90
33837;DHT22;20140;49.356;8.812;2023-12-04T06:12:19;-3.30;99.90
33837;DHT22;20140;49.356;8.812;2023-12-04T06:14:45;-3.30;99.90
33837;DHT22;20140;49.356;8.812;2023-12-04T06:17:10;-3.30;99.90
33837;DHT22;20140;49.356;8.812;2023-12-04T06:19:36;-3.30;99.90
33837;DHT22;20140;49.356;8.812;2023-12-04T06:22:01;-3.30;99.90
33837;DHT22;20140;49.356;8.812;2023-12-04T06:24:27;-3.30;99.90
33837;DHT22;20140;49.356;8.812;2023-12-04T06:26:52;-3.30;99.90
33837;DHT22;20140;49.356;8.812;2023-12-04T06:29:18;-3.30;99.90
33837;DHT22;20140;49.356;8.812;2023-12-04T06:31:44;-3.40;99.90
33837;DHT22;20140;49.356;8.812;2023-12-04T06:34:10;-3.30;99.90
33837;DHT22;20140;49.356;8.812;2023-12-04T06:36:37;-3.40;99.90
33837;DHT22;20140;49.356;8.812;2023-12-04T06:39:03;-3.50;99.90
33837;DHT22;20140;49.356;8.812;2023-12-04T06:41:29;-3.50;99.90
33837;DHT22;20140;49.356;8.812;2023-12-04T06:43:55;-3.50;99.90
33837;DHT22;20140;49.356;8.812;2023-12-04T06:46:21;-3.60;99.90
33837;DHT22;20140;49.356;8.812;2023-12-04T06:48:47;-3.50;99.90
33837;DHT22;20140;49.356;8.812;2023-12-04T06:51:13;-3.60;99.90
33837;DHT22;20140;49.356;8.812;2023-12-04T06:53:38;-3.50;99.90
33837;DHT22;20140;49.356;8.812;2023-12-04T06:56:04;-3.50;99.90
33837;DHT22;20140;49.356;8.812;2023-12-04T06:58:29;-3.50;99.90
33837;DHT22;20140;49.356;8.812;2023-12-04T07:00:55;-3.70;99.90
33837;DHT22;20140;49.356;8.812;2023-12-04T07:03:20;-3.70;99.90
33837;DHT22;20140;49.356;8.812;2023-12-04T07:05:46;-3.70;99.90
33837;DHT22;20140;49.356;8.812;2023-12-04T07:08:11;-3.60;99.90
33837;DHT22;20140;49.356;8.812;2023-12-04T07:10:37;-3.50;99.90
33837;DHT22;20140;49.356;8.812;2023-12-04T07:13:05;-3.30;99.90
33837;DHT22;20140;49.356;8.812;2023-12-04T07:15:30;-3.20;99.90
33837;DHT22;20140;49.356;8.812;2023-12-04T07:17:55;-3.10;99.90
33837;DHT22;20140;49.356;8.812;2023-12-04T07:20:21;-2.90;99.90
33837;DHT22;20140;49.356;8.812;2023-12-04T07:22:49;-2.80;99.90
33837;DHT22;20140;49.356;8.812;2023-12-04T07:25:14;-2.80;99.90
33837;DHT22;20140;49.356;8.812;2023-12-04T07:27:41;-2.80;99.90
33837;DHT22;20140;49.356;8.812;2023-12-04T07:30:07;-2.80;99.90
33837;DHT22;20140;49.356;8.812;2023-12-04T07:32:32;-2.70;99.90
33837;DHT22;20140;49.356;8.812;2023-12-04T07:34:58;-2.70;99.90
33837;DHT22;20140;49.356;8.812;2023-12-04T07:37:24;-2.50;99.90
33837;DHT22;20140;49.356;8.812;2023-12-04T07:39:49;-2.40;99.90
33837;DHT22;20140;49.356;8.812;2023-12-04T07:42:15;-2.20;99.90
33837;DHT22;20140;49.356;8.812;2023-12-04T07:44:40;-2.20;99.90
33837;DHT22;20140;49.356;8.812;2023-12-04T07:47:06;-2.10;99.90
33837;DHT22;20140;49.356;8.812;2023-12-04T07:49:31;-2.00;99.90
33837;DHT22;20140;49.356;8.812;2023-12-04T07:51:56;-2.00;99.90
33837;DHT22;20140;49.356;8.812;2023-12-04T07:54:23;-2.10;99.90
33837;DHT22;20140;49.356;8.812;2023-12-04T07:56:51;-2.00;99.90
33837;DHT22;20140;49.356;8.812;2023-12-04T07:59:17;-2.10;99.90
33837;DHT22;20140;49.356;8.812;2023-12-04T08:01:43;-2.10;99.90
33837;DHT22;20140;49.356;8.812;2023-12-04T08:04:10;-2.00;99.90
33837;DHT22;20140;49.356;8.812;2023-12-04T08:06:35;-2.00;99.90
33837;DHT22;20140;49.356;8.812;2023-12-04T08:09:00;-2.00;99.90
33837;DHT22;20140;49.356;8.812;2023-12-04T08:11:26;-1.80;99.90
33837;DHT22;20140;49.356;8.812;2023-12-04T08:13:51;-1.70;99.90
33837;DHT22;20140;49.356;8.812;2023-12-04T08:16:17;-1.70;99.90
33837;DHT22;20140;49.356;8.812;2023-12-04T08:18:42;-1.60;99.90
33837;DHT22;20140;49.356;8.812;2023-12-04T08:21:11;-1.70;99.90
33837;DHT22;20140;49.356;8.812;2023-12-04T08:23:39;-1.80;99.90
33837;DHT22;20140;49.356;8.812;2023-12-04T08:26:04;-1.70;99.90
33837;DHT22;20140;49.356;8.812;2023-12-04T08:28:30;-1.70;99.90
33837;DHT22;20140;49.356;8.812;2023-12-04T08:30:56;-1.60;99.90
33837;DHT22;20140;49.356;8.812;2023-12-04T08:33:21;-1.50;99.90
33837;DHT22;20140;49.356;8.812;2023-12-04T08:35:47;-1.50;99.90
33837;DHT22;20140;49.356;8.812;2023-12-04T08:38:12;-1.30;99.90
33837;DHT22;20140;49.356;8.812;2023-12-04T08:40:38;-1.20;99.90
33837;DHT22;20140;49.356;8.812;2023-12-04T08:43:03;-1.20;99.90
33837;DHT22;20140;49.356;8.812;2023-12-04T08:45:29;-1.10;99.90
33837;DHT22;20140;49.356;8.812;2023-12-04T08:47:54;-1.20;99.90
33837;DHT22;20140;49.356;8.812;2023-12-04T08:50:20;-1.20;99.90
33837;DHT22;20140;49.356;8.812;2023-12-04T08:52:46;-1.30;99.90
33837;DHT22;20140;49.356;8.812;2023-12-04T08:55:11;-1.20;99.90
33837;DHT22;20140;49.356;8.812;2023-12-04T08:57:37;-1.10;99.90
33837;DHT22;20140;49.356;8.812;2023-12-04T09:00:03;-1.10;99.90
33837;DHT22;20140;49.356;8.812;2023-12-04T09:02:29;-1.00;99.90
33837;DHT22;20140;49.356;8.812;2023-12-04T09:04:55;-1.10;99.90
33837;DHT22;20140;49.356;8.812;2023-12-04T09:07:21;-1.00;99.90
33837;DHT22;20140;49.356;8.812;2023-12-04T09:09:46;-0.90;99.90
33837;DHT22;20140;49.356;8.812;2023-12-04T09:12:12;-0.90;99.90
33837;DHT22;20140;49.356;8.812;2023-12-04T09:14:37;-0.90;99.90
33837;DHT22;20140;49.356;8.812;2023-12-04T09:17:03;-1.00;99.90
33837;DHT22;20140;49.356;8.812;2023-12-04T09:19:28;-0.90;99.90
33837;DHT22;20140;49.356;8.812;2023-12-04T09:21:57;-0.90;99.90
33837;DHT22;20140;49.356;8.812;2023-12-04T09:24:23;-0.80;99.90
33837;DHT22;20140;49.356;8.812;2023-12-04T09:26:49;-0.70;99.90
33837;DHT22;20140;49.356;8.812;2023-12-04T09:29:14;-0.90;99.90
33837;DHT22;20140;49.356;8.812;2023-12-04T09:31:41;-0.90;99.90
33837;DHT22;20140;49.356;8.812;2023-12-04T09:34:07;-0.80;99.90
33837;DHT22;20140;49.356;8.812;2023-12-04T09:36:33;-0.80;99.90
33837;DHT22;20140;49.356;8.812;2023-12-04T09:38:59;-0.70;99.90
33837;DHT22;20140;49.356;8.812;2023-12-04T09:41:25;-0.60;99.90
33837;DHT22;20140;49.356;8.812;2023-12-04T09:43:50;-0.70;99.90
33837;DHT22;20140;49.356;8.812;2023-12-04T09:46:16;-0.70;99.90
33837;DHT22;20140;49.356;8.812;2023-12-04T09:48:42;-0.70;99.90
33837;DHT22;20140;49.356;8.812;2023-12-04T09:51:08;-0.50;99.90
33837;DHT22;20140;49.356;8.812;2023-12-04T09:53:34;-0.50;99.90
33837;DHT22;20140;49.356;8.812;2023-12-04T09:56:00;-0.60;99.90
33837;DHT22;20140;49.356;8.812;2023-12-04T09:58:28;-0.50;99.90
33837;DHT22;20140;49.356;8.812;2023-12-04T10:00:54;-0.50;99.90
33837;DHT22;20140;49.356;8.812;2023-12-04T10:03:20;-0.40;99.90
33837;DHT22;20140;49.356;8.812;2023-12-04T10:05:45;-0.50;99.90
33837;DHT22;20140;49.356;8.812;2023-12-04T10:08:11;-0.50;99.90
33837;DHT22;20140;49.356;8.812;2023-12-04T10:10:36;-0.40;99.90
33837;DHT22;20140;49.356;8.812;2023-12-04T10:13:02;-0.30;99.90
33837;DHT22;20140;49.356;8.812;2023-12-04T10:15:28;-0.40;99.90
33837;DHT22;20140;49.356;8.812;2023-12-04T10:17:53;-0.40;99.90
33837;DHT22;20140;49.356;8.812;2023-12-04T10:20:19;-0.30;99.90
33837;DHT22;20140;49.356;8.812;2023-12-04T10:22:56;-0.40;99.90
33837;DHT22;20140;49.356;8.812;2023-12-04T10:25:23;-0.50;99.90
33837;DHT22;20140;49.356;8.812;2023-12-04T10:27:52;-0.40;99.90
33837;DHT22;20140;49.356;8.812;2023-12-04T10:30:21;-0.40;99.90
33837;DHT22;20140;49.356;8.812;2023-12-04T10:32:47;-0.40;99.90
33837;DHT22;20140;49.356;8.812;2023-12-04T10:35:12;-0.20;99.90
33837;DHT22;20140;49.356;8.812;2023-12-04T10:37:38;-0.20;99.90
33837;DHT22;20140;49.356;8.812;2023-12-04T10:40:04;-0.10;99.90
33837;DHT22;20140;49.356;8.812;2023-12-04T10:42:34;-0.20;99.90
33837;DHT22;20140;49.356;8.812;2023-12-04T10:45:00;-0.40;99.90
33837;DHT22;20140;49.356;8.812;2023-12-04T10:47:26;-0.20;99.90
33837;DHT22;20140;49.356;8.812;2023-12-04T10:49:52;-0.20;99.90
33837;DHT22;20140;49.356;8.812;2023-12-04T10:52:20;-0.20;99.90
33837;DHT22;20140;49.356;8.812;2023-12-04T10:54:49;-0.10;99.90
33837;DHT22;20140;49.356;8.812;2023-12-04T10:57:27;0.00;99.90
33837;DHT22;20140;49.356;8.812;2023-12-04T10:59:58;-0.20;99.90
33837;DHT22;20140;49.356;8.812;2023-12-04T11:02:27;-0.20;99.90
33837;DHT22;20140;49.356;8.812;2023-12-04T11:04:57;-0.20;99.90
33837;DHT22;20140;49.356;8.812;2023-12-04T11:07:26;-0.10;99.90
33837;DHT22;20140;49.356;8.812;2023-12-04T11:09:52;0.00;99.90
33837;DHT22;20140;49.356;8.812;2023-12-04T11:12:19;-0.10;99.90
33837;DHT22;20140;49.356;8.812;2023-12-04T11:14:49;-0.10;99.90
33837;DHT22;20140;49.356;8.812;2023-12-04T11:17:18;-0.20;99.90
33837;DHT22;20140;49.356;8.812;2023-12-04T11:19:55;-0.10;99.90
33837;DHT22;20140;49.356;8.812;2023-12-04T11:22:21;-0.10;99.90
33837;DHT22;20140;49.356;8.812;2023-12-04T11:24:47;-0.40;99.90
33837;DHT22;20140;49.356;8.812;2023-12-04T11:27:14;-0.20;99.90
33837;DHT22;20140;49.356;8.812;2023-12-04T11:29:40;-0.10;99.90
33837;DHT22;20140;49.356;8.812;2023-12-04T11:32:06;-0.20;99.90
33837;DHT22;20140;49.356;8.812;2023-12-04T11:34:32;-0.30;99.90
33837;DHT22;20140;49.356;8.812;2023-12-04T11:36:57;-0.30;99.90
33837;DHT22;20140;49.356;8.812;2023-12-04T11:39:25;-0.40;99.90
33837;DHT22;20140;49.356;8.812;2023-12-04T11:41:50;-0.40;99.90
33837;DHT22;20140;49.356;8.812;2023-12-04T11:44:19;-0.40;99.90
33837;DHT22;20140;49.356;8.812;2023-12-04T11:46:55;-0.40;99.90
33837;DHT22;20140;49.356;8.812;2023-12-04T11:49:26;-0.40;99.90
33837;DHT22;20140;49.356;8.812;2023-12-04T11:51:53;-0.50;99.90
33837;DHT22;20140;49.356;8.812;2023-12-04T11:54:19;-0.60;99.90
33837;DHT22;20140;49.356;8.812;2023-12-04T11:59:22;-0.60;99.90
33837;DHT22;20140;49.356;8.812;2023-12-04T12:01:50;-0.60;99.90
33837;DHT22;20140;49.356;8.812;2023-12-04T12:04:15;-0.60;99.90
33837;DHT22;20140;49.356;8.812;2023-12-04T12:06:42;-0.80;99.90
33837;DHT22;20140;49.356;8.812;2023-12-04T12:09:07;-0.90;99.90
33837;DHT22;20140;49.356;8.812;2023-12-04T12:11:33;-0.90;99.90
33837;DHT22;20140;49.356;8.812;2023-12-04T12:13:59;-0.90;99.90
33837;DHT22;20140;49.356;8.812;2023-12-04T12:16:24;-0.90;99.90
33837;DHT22;20140;49.356;8.812;2023-12-04T12:18:51;-0.80;99.90
33837;DHT22;20140;49.356;8.812;2023-12-04T12:21:16;-0.80;99.90
33837;DHT22;20140;49.356;8.812;2023-12-04T12:23:42;-0.80;99.90
33837;DHT22;20140;49.356;8.812;2023-12-04T12:26:08;-0.70;99.90
33837;DHT22;20140;49.356;8.812;2023-12-04T12:28:37;-0.60;99.90
33837;DHT22;20140;49.356;8.812;2023-12-04T12:31:02;-0.70;99.90
33837;DHT22;20140;49.356;8.812;2023-12-04T12:33:28;-0.70;99.90
33837;DHT22;20140;49.356;8.812;2023-12-04T12:35:55;-0.70;99.90
33837;DHT22;20140;49.356;8.812;2023-12-04T12:38:20;-0.60;99.90
33837;DHT22;20140;49.356;8.812;2023-12-04T12:40:46;-0.70;99.90
33837;DHT22;20140;49.356;8.812;2023-12-04T12:43:12;-0.70;99.90
33837;DHT22;20140;49.356;8.812;2023-12-04T12:45:41;-0.70;99.90
33837;DHT22;20140;49.356;8.812;2023-12-04T12:48:10;-0.50;99.90
33837;DHT22;20140;49.356;8.812;2023-12-04T12:50:35;-0.70;99.90
33837;DHT22;20140;49.356;8.812;2023-12-04T12:53:01;-0.70;99.90
33837;DHT22;20140;49.356;8.812;2023-12-04T12:55:27;-0.70;99.90
33837;DHT22;20140;49.356;8.812;2023-12-04T12:57:55;-0.60;99.90
33837;DHT22;20140;49.356;8.812;2023-12-04T13:00:20;-0.50;99.90
33837;DHT22;20140;49.356;8.812;2023-12-04T13:02:46;-0.70;99.90
33837;DHT22;20140;49.356;8.812;2023-12-04T13:05:11;-0.50;99.90
33837;DHT22;20140;49.356;8.812;2023-12-04T13:07:37;-0.50;99.90
33837;DHT22;20140;49.356;8.812;2023-12-04T13:10:02;-0.50;99.90
33837;DHT22;20140;49.356;8.812;2023-12-04T13:12:30;-0.50;99.90
33837;DHT22;20140;49.356;8.812;2023-12-04T13:14:55;-0.40;99.90
33837;DHT22;20140;49.356;8.812;2023-12-04T13:17:21;-0.30;99.90
33837;DHT22;20140;49.356;8.812;2023-12-04T13:19:46;-0.30;99.90
33837;DHT22;20140;49.356;8.812;2023-12-04T13:22:12;-0.30;99.90
33837;DHT22;20140;49.356;8.812;2023-12-04T13:24:37;-0.30;99.90
33837;DHT22;20140;49.356;8.812;2023-12-04T13:27:03;-0.30;99.90
33837;DHT22;20140;49.356;8.812;2023-12-04T13:29:28;-0.30;99.90
33837;DHT22;20140;49.356;8.812;2023-12-04T13:31:54;-0.30;99.90
33837;DHT22;20140;49.356;8.812;2023-12-04T13:34:19;-0.20;99.90
33837;DHT22;20140;49.356;8.812;2023-12-04T13:36:45;-0.20;99.90
33837;DHT22;20140;49.356;8.812;2023-12-04T13:39:10;-0.20;99.90
33837;DHT22;20140;49.356;8.812;2023-12-04T13:41:45;-0.20;99.90
33837;DHT22;20140;49.356;8.812;2023-12-04T13:44:29;-0.10;99.90
33837;DHT22;20140;49.356;8.812;2023-12-04T13:46:55;-0.10;99.90
33837;DHT22;20140;49.356;8.812;2023-12-04T13:49:20;-0.10;99.90
33837;DHT22;20140;49.356;8.812;2023-12-04T13:51:46;-0.10;99.90
33837;DHT22;20140;49.356;8.812;2023-12-04T13:54:14;0.00;99.90
33837;DHT22;20140;49.356;8.812;2023-12-04T13:56:48;-0.10;99.90
33837;DHT22;20140;49.356;8.812;2023-12-04T13:59:20;-0.20;99.90
33837;DHT22;20140;49.356;8.812;2023-12-04T14:01:47;-0.10;99.90
33837;DHT22;20140;49.356;8.812;2023-12-04T14:04:13;-0.20;99.90
33837;DHT22;20140;49.356;8.812;2023-12-04T14:06:38;-0.20;99.90
33837;DHT22;20140;49.356;8.812;2023-12-04T14:09:04;-0.20;99.90
33837;DHT22;20140;49.356;8.812;2023-12-04T14:11:35;-0.10;99.90
33837;DHT22;20140;49.356;8.812;2023-12-04T14:14:01;-0.10;99.90
33837;DHT22;20140;49.356;8.812;2023-12-04T14:16:26;-0.10;99.90
33837;DHT22;20140;49.356;8.812;2023-12-04T14:18:52;-0.10;99.90
33837;DHT22;20140;49.356;8.812;2023-12-04T14:21:17;0.00;99.90
33837;DHT22;20140;49.356;8.812;2023-12-04T14:23:42;0.10;99.90
33837;DHT22;20140;49.356;8.812;2023-12-04T14:26:08;0.00;99.90
33837;DHT22;20140;49.356;8.812;2023-12-04T14:28:33;0.00;99.90
33837;DHT22;20140;49.356;8.812;2023-12-04T14:30:59;0.10;99.90
33837;DHT22;20140;49.356;8.812;2023-12-04T14:33:24;0.00;99.90
33837;DHT22;20140;49.356;8.812;2023-12-04T14:35:50;0.00;99.90
33837;DHT22;20140;49.356;8.812;2023-12-04T14:38:16;0.00;99.90
33837;DHT22;20140;49.356;8.812;2023-12-04T14:40:41;0.10;99.90
33837;DHT22;20140;49.356;8.812;2023-12-04T14:43:07;0.20;99.90
33837;DHT22;20140;49.356;8.812;2023-12-04T14:45:37;0.10;99.90
33837;DHT22;20140;49.356;8.812;2023-12-04T14:48:03;0.10;99.90
33837;DHT22;20140;49.356;8.812;2023-12-04T14:50:32;0.10;99.90
33837;DHT22;20140;49.356;8.812;2023-12-04T14:52:57;0.20;99.90
33837;DHT22;20140;49.356;8.812;2023-12-04T14:55:32;0.00;99.90
33837;DHT22;20140;49.356;8.812;2023-12-04T14:58:20;0.10;99.90
33837;DHT22;20140;49.356;8.812;2023-12-04T15:01:06;0.20;99.90
33837;DHT22;20140;49.356;8.812;2023-12-04T15:03:50;0.10;99.90
33837;DHT22;20140;49.356;8.812;2023-12-04T15:06:34;-0.10;99.90
33837;DHT22;20140;49.356;8.812;2023-12-04T15:09:10;-0.20;99.90
33837;DHT22;20140;49.356;8.812;2023-12-04T15:11:56;-0.20;99.90
33837;DHT22;20140;49.356;8.812;2023-12-04T15:14:48;-0.10;99.90
33837;DHT22;20140;49.356;8.812;2023-12-04T15:17:25;0.00;99.90
33837;DHT22;20140;49.356;8.812;2023-12-04T15:19:53;0.00;99.90
33837;DHT22;20140;49.356;8.812;2023-12-04T15:22:24;0.10;99.90
33837;DHT22;20140;49.356;8.812;2023-12-04T15:24:50;0.20;99.90
33837;DHT22;20140;49.356;8.812;2023-12-04T15:27:15;0.20;99.90
33837;DHT22;20140;49.356;8.812;2023-12-04T15:29:41;0.00;99.90
33837;DHT22;20140;49.356;8.812;2023-12-04T15:32:07;0.10;99.90